Time;durP1;ratioP1;P1;durP2;ratioP2;P2;SDS_P1;SDS_P2;PMS_P1;PMS_P2;Temp;Humidity;BMP_temperature;BMP_pressure;BME280_temperature;BME280_humidity;BME280_pressure;Samples;Min_cycle;Max_cycle;Signal;HPM_P1;HPM_P2
2023/10/10 00:01:05;;;;;;;3.58;2.15;;;15.80;99.90;;;;;;4950320;29;20040;-58
2023/10/10 00:03:32;;;;;;;3.65;1.60;;;15.80;99.90;;;;;;4950818;28;20489;-58
2023/10/10 00:05:59;;;;;;;2.22;1.17;;;15.80;99.90;;;;;;4950326;29;20062;-59
2023/10/10 00:08:42;;;;;;;3.13;1.60;;;15.80;99.90;;;;;;4950260;29;20491;-58
2023/10/10 00:11:09;;;;;;;2.28;1.10;;;15.70;99.90;;;;;;4949843;29;20127;-58
2023/10/10 00:13:42;;;;;;;2.58;1.10;;;15.80;99.90;;;;;;4949933;29;20078;-59
2023/10/10 00:16:35;;;;;;;7.75;2.22;;;15.80;99.90;;;;;;4948895;29;20047;-58
2023/10/10 00:19:11;;;;;;;2.30;1.40;;;15.80;99.90;;;;;;4950162;29;20510;-59
2023/10/10 00:21:40;;;;;;;3.05;1.08;;;15.80;99.90;;;;;;4951196;28;20085;-59
2023/10/10 00:24:10;;;;;;;1.92;1.02;;;15.80;99.90;;;;;;4943427;28;20051;-59
2023/10/10 00:26:37;;;;;;;6.55;1.33;;;15.80;99.90;;;;;;4932435;29;20044;-58
2023/10/10 00:29:06;;;;;;;2.35;1.48;;;15.80;99.90;;;;;;4932318;29;20090;-58
2023/10/10 00:31:31;;;;;;;4.40;1.13;;;15.80;99.90;;;;;;4931282;29;20043;-58
2023/10/10 00:33:58;;;;;;;3.55;1.40;;;15.80;99.90;;;;;;4932095;29;20436;-58
2023/10/10 00:36:36;;;;;;;5.22;1.30;;;15.80;99.90;;;;;;4931906;29;20063;-58
2023/10/10 00:41:51;;;;;;;5.53;1.08;;;15.80;99.90;;;;;;4930430;29;20138;-58
2023/10/10 00:44:18;;;;;;;3.53;1.40;;;15.90;99.90;;;;;;4948511;29;20063;-58
2023/10/10 00:46:55;;;;;;;2.30;0.98;;;15.80;99.90;;;;;;4950506;28;20126;-58
2023/10/10 00:49:24;;;;;;;2.65;1.10;;;15.80;99.90;;;;;;4949739;29;20096;-58
2023/10/10 00:51:53;;;;;;;2.03;1.15;;;15.90;99.90;;;;;;4933112;29;20047;-58
2023/10/10 00:56:56;;;;;;;2.22;1.05;;;15.90;99.90;;;;;;4950976;28;20040;-58
2023/10/10 00:59:34;;;;;;;1.63;0.90;;;15.90;99.90;;;;;;4948479;29;20051;-58
2023/10/10 01:02:04;;;;;;;1.83;1.02;;;15.90;99.90;;;;;;4950813;28;20043;-58
2023/10/10 01:04:39;;;;;;;5.38;1.48;;;15.90;99.90;;;;;;4949484;29;20134;-58
2023/10/10 01:07:08;;;;;;;2.13;1.15;;;15.90;99.90;;;;;;4948560;29;20047;-58
2023/10/10 01:09:41;;;;;;;3.03;1.37;;;15.90;99.90;;;;;;4949225;29;20079;-58
2023/10/10 01:12:07;;;;;;;2.15;1.33;;;15.90;99.90;;;;;;4948690;29;20047;-58
2023/10/10 01:14:33;;;;;;;2.35;0.98;;;15.80;99.90;;;;;;4949515;29;20052;-58
2023/10/10 01:16:59;;;;;;;2.38;1.10;;;15.80;99.90;;;;;;4951065;28;20048;-58
2023/10/10 01:19:28;;;;;;;3.17;1.27;;;15.80;99.90;;;;;;4948166;29;20098;-58
2023/10/10 01:22:04;;;;;;;4.28;0.88;;;15.80;99.90;;;;;;4948472;28;20072;-58
2023/10/10 01:24:32;;;;;;;1.73;0.95;;;15.70;99.90;;;;;;4938647;29;20047;-58
2023/10/10 01:27:15;;;;;;;2.03;1.07;;;15.70;99.90;;;;;;4950199;28;20070;-58
2023/10/10 01:29:49;;;;;;;3.45;1.25;;;15.60;99.90;;;;;;4948903;29;20058;-58
2023/10/10 01:32:17;;;;;;;2.00;1.10;;;15.60;99.90;;;;;;4948911;29;20047;-58
2023/10/10 01:34:44;;;;;;;3.05;1.27;;;15.50;99.90;;;;;;4932337;29;20039;-58
2023/10/10 01:37:22;;;;;;;2.28;1.08;;;15.50;99.90;;;;;;4949158;29;20071;-58
2023/10/10 01:42:38;;;;;;;2.88;1.15;;;15.40;99.90;;;;;;4948564;29;20052;-58
2023/10/10 01:45:08;;;;;;;2.22;1.23;;;15.40;99.90;;;;;;4948635;29;20043;-58
2023/10/10 01:47:35;;;;;;;2.17;0.88;;;15.30;99.90;;;;;;4949547;28;20889;-58
2023/10/10 01:50:07;;;;;;;3.58;1.58;;;15.30;99.90;;;;;;4948592;29;20049;-58
2023/10/10 01:52:45;;;;;;;4.00;1.30;;;15.30;99.90;;;;;;4949998;28;20066;-58
2023/10/10 01:55:12;;;;;;;2.38;1.33;;;15.30;99.90;;;;;;4913136;29;20044;-58
2023/10/10 01:57:38;;;;;;;2.22;1.10;;;15.30;99.90;;;;;;4936107;29;20069;-58
2023/10/10 02:00:51;;;;;;;2.38;0.98;;;15.30;99.90;;;;;;4932645;29;20101;-58
2023/10/10 02:02:52;;;;;;;4.93;1.30;;;15.30;99.90;;;;;;4948031;28;20055;-58
2023/10/10 02:07:57;;;;;;;3.90;2.08;;;15.20;99.90;;;;;;4947824;29;20055;-58
2023/10/10 02:10:26;;;;;;;4.53;1.48;;;15.30;99.90;;;;;;4948663;29;20436;-58
2023/10/10 02:12:52;;;;;;;5.15;2.80;;;15.30;99.90;;;;;;4948359;29;20193;-58
2023/10/10 02:15:26;;;;;;;3.95;2.03;;;15.30;99.90;;;;;;4947500;29;20729;-58
2023/10/10 02:17:54;;;;;;;3.03;2.03;;;15.30;99.90;;;;;;4932427;29;20082;-58
2023/10/10 02:25:40;;;;;;;3.47;1.63;;;15.30;99.90;;;;;;4935584;29;20381;-58
2023/10/10 02:30:46;;;;;;;4.43;1.95;;;15.30;99.90;;;;;;4928382;28;20048;-58
2023/10/10 02:35:55;;;;;;;4.97;1.75;;;15.30;99.90;;;;;;4941639;29;20515;-58
2023/10/10 02:38:31;;;;;;;6.90;2.20;;;15.30;99.90;;;;;;4948462;29;20500;-58
2023/10/10 02:43:56;;;;;;;4.82;1.60;;;15.30;99.90;;;;;;4947332;28;20071;-58
2023/10/10 02:46:40;;;;;;;3.35;1.85;;;15.30;99.90;;;;;;4932139;29;20173;-58
2023/10/10 02:49:29;;;;;;;5.25;1.77;;;15.30;99.90;;;;;;4949130;28;20526;-58
2023/10/10 02:51:57;;;;;;;6.53;2.17;;;15.30;99.90;;;;;;4947207;29;20058;-58
2023/10/10 02:57:39;;;;;;;5.10;2.28;;;15.30;99.90;;;;;;4947571;29;20113;-58
2023/10/10 03:02:55;;;;;;;8.57;3.28;;;15.30;99.90;;;;;;4947665;28;20121;-58
2023/10/10 03:06:10;;;;;;;5.82;2.72;;;15.30;99.90;;;;;;4948400;28;20694;-58
2023/10/10 03:08:26;;;;;;;6.55;2.67;;;15.30;99.90;;;;;;4944241;29;20039;-58
2023/10/10 03:10:54;;;;;;;5.75;3.22;;;15.40;99.90;;;;;;4947136;29;20411;-58
2023/10/10 03:13:28;;;;;;;8.13;2.65;;;15.40;99.90;;;;;;4947395;29;20054;-58
2023/10/10 03:16:15;;;;;;;12.07;3.45;;;15.40;99.90;;;;;;4947575;29;20043;-58
2023/10/10 03:18:53;;;;;;;9.50;3.92;;;15.40;99.90;;;;;;4947855;28;20391;-58
2023/10/10 03:21:43;;;;;;;7.10;3.53;;;15.40;99.90;;;;;;4948781;28;20364;-58
2023/10/10 03:24:21;;;;;;;6.22;3.03;;;15.50;99.90;;;;;;4938847;28;20085;-58
2023/10/10 03:29:21;;;;;;;9.75;3.65;;;15.50;99.90;;;;;;4928087;29;20098;-58
2023/10/10 03:32:59;;;;;;;5.53;3.15;;;15.50;99.90;;;;;;4937033;29;20051;-58
2023/10/10 03:34:55;;;;;;;10.38;3.95;;;15.50;99.90;;;;;;4950645;28;20423;-58
2023/10/10 03:37:30;;;;;;;6.88;2.78;;;15.50;99.90;;;;;;4947169;29;20086;-58
2023/10/10 03:40:20;;;;;;;8.00;3.65;;;15.50;99.90;;;;;;4946560;29;20073;-58
2023/10/10 05:24:39;;;;;;;13.35;5.43;;;14.70;99.90;;;;;;4951042;28;20113;-58
2023/10/10 05:27:10;;;;;;;11.60;5.18;;;14.70;99.90;;;;;;4949340;29;20047;-58
2023/10/10 05:29:38;;;;;;;9.40;4.50;;;14.70;99.90;;;;;;4948625;29;20058;-58
2023/10/10 05:32:08;;;;;;;12.43;5.35;;;14.70;99.90;;;;;;4949056;28;20735;-58
2023/10/10 05:34:35;;;;;;;10.35;4.93;;;14.60;99.90;;;;;;4950170;28;20052;-58
2023/10/10 05:37:01;;;;;;;9.40;4.70;;;14.70;99.90;;;;;;4949885;28;20468;-58
2023/10/10 05:39:32;;;;;;;8.95;4.15;;;14.60;99.90;;;;;;4948493;28;20035;-58
2023/10/10 05:42:01;;;;;;;9.98;4.30;;;14.60;99.90;;;;;;4949196;28;20071;-58
2023/10/10 05:44:29;;;;;;;15.68;4.43;;;14.60;99.90;;;;;;4949678;28;20606;-58
2023/10/10 05:46:55;;;;;;;9.25;4.22;;;14.60;99.90;;;;;;4947851;29;20072;-59
2023/10/10 05:49:21;;;;;;;9.43;4.45;;;14.60;99.90;;;;;;4949718;28;20126;-58
2023/10/10 05:51:47;;;;;;;9.85;3.72;;;14.60;99.90;;;;;;4948567;29;20058;-58
2023/10/10 05:54:13;;;;;;;10.95;5.32;;;14.60;99.90;;;;;;4935452;28;20044;-58
2023/10/10 05:56:38;;;;;;;9.25;4.10;;;14.60;99.90;;;;;;4929438;29;20054;-58
2023/10/10 05:59:04;;;;;;;12.57;4.00;;;14.60;99.90;;;;;;4928719;29;20047;-58
2023/10/10 06:01:30;;;;;;;8.48;4.25;;;14.60;99.90;;;;;;4929611;29;20145;-59
2023/10/10 06:03:57;;;;;;;9.80;4.18;;;14.60;99.90;;;;;;4930859;29;20048;-58
2023/10/10 06:06:24;;;;;;;10.77;4.72;;;14.60;99.90;;;;;;4928677;29;20162;-58
2023/10/10 06:09:00;;;;;;;11.52;3.97;;;14.60;99.90;;;;;;4928410;29;20050;-58
2023/10/10 06:11:27;;;;;;;10.48;4.82;;;14.70;99.90;;;;;;4929166;29;20052;-58
2023/10/10 06:13:53;;;;;;;11.82;5.85;;;14.70;99.90;;;;;;4912618;29;20052;-59
2023/10/10 06:16:20;;;;;;;10.50;4.43;;;14.70;99.90;;;;;;4929257;29;20435;-58
2023/10/10 06:18:47;;;;;;;10.15;4.13;;;14.70;99.90;;;;;;4928959;29;20054;-58
2023/10/10 06:21:16;;;;;;;10.30;5.47;;;14.70;99.90;;;;;;4927153;29;20047;-59
2023/10/10 06:23:43;;;;;;;15.35;6.40;;;14.80;99.90;;;;;;4942297;28;20428;-58
2023/10/10 06:26:12;;;;;;;11.38;5.60;;;14.80;99.90;;;;;;4930383;29;20077;-58
2023/10/10 06:28:48;;;;;;;13.88;5.18;;;14.90;99.90;;;;;;4929825;29;20117;-58
2023/10/10 06:31:19;;;;;;;10.88;4.60;;;14.90;99.90;;;;;;4932707;29;20130;-58
2023/10/10 06:33:52;;;;;;;11.80;5.55;;;14.90;99.90;;;;;;4931939;29;20043;-58
2023/10/10 06:41:38;;;;;;;12.82;6.07;;;15.00;99.90;;;;;;4947387;29;20470;-59
2023/10/10 06:44:04;;;;;;;16.30;6.30;;;15.00;99.90;;;;;;4947599;29;20059;-58
2023/10/10 06:46:32;;;;;;;15.65;6.57;;;15.10;99.90;;;;;;4948896;28;20117;-59
2023/10/10 06:49:04;;;;;;;15.25;6.40;;;15.10;99.90;;;;;;4947056;29;20098;-58
2023/10/10 06:51:31;;;;;;;14.73;5.78;;;15.20;99.90;;;;;;4948758;28;20066;-58
2023/10/10 06:53:56;;;;;;;16.17;7.07;;;15.20;99.90;;;;;;4920690;29;20094;-58
2023/10/10 06:56:44;;;;;;;21.42;8.50;;;15.20;99.90;;;;;;4929461;29;20492;-58
2023/10/10 06:59:20;;;;;;;20.65;8.57;;;15.30;99.90;;;;;;4928554;28;20051;-58
2023/10/10 07:01:46;;;;;;;16.70;7.18;;;15.30;99.90;;;;;;4928712;29;20052;-58
2023/10/10 07:04:13;;;;;;;23.55;7.80;;;15.40;99.90;;;;;;4912099;29;20059;-58
2023/10/10 07:06:45;;;;;;;14.63;7.38;;;15.40;99.90;;;;;;4929822;29;20079;-58
2023/10/10 07:09:29;;;;;;;17.13;7.53;;;15.40;99.90;;;;;;4928022;29;20048;-58
2023/10/10 07:12:09;;;;;;;18.83;8.13;;;15.50;99.90;;;;;;4928459;29;20052;-58
2023/10/10 07:14:45;;;;;;;21.45;9.27;;;15.50;99.90;;;;;;4912494;29;20043;-58
2023/10/10 07:17:15;;;;;;;27.20;9.57;;;15.50;99.90;;;;;;4940197;28;20043;-58
2023/10/10 07:22:33;;;;;;;21.70;9.98;;;15.60;99.90;;;;;;4945673;28;20127;-58
2023/10/10 07:25:09;;;;;;;25.13;10.80;;;15.70;99.90;;;;;;4934482;28;20122;-58
2023/10/10 07:27:39;;;;;;;25.00;12.00;;;15.70;99.90;;;;;;4947845;28;20039;-58
2023/10/10 07:30:33;;;;;;;30.38;13.07;;;15.70;99.90;;;;;;4946471;28;20054;-58
2023/10/10 07:32:55;;;;;;;29.35;12.27;;;15.80;99.90;;;;;;4945920;28;20047;-58
2023/10/10 07:35:28;;;;;;;28.60;13.18;;;15.80;99.90;;;;;;4946655;29;20613;-58
2023/10/10 07:37:58;;;;;;;35.70;14.13;;;15.90;99.90;;;;;;4946052;29;20118;-58
2023/10/10 07:40:31;;;;;;;34.28;15.43;;;16.00;99.90;;;;;;5024973;28;20041;-58
2023/10/10 07:43:00;;;;;;;41.05;14.20;;;16.00;99.90;;;;;;5007298;28;20140;-58
2023/10/10 07:45:33;;;;;;;44.10;16.35;;;16.20;99.90;;;;;;4946648;29;20131;-58
2023/10/10 07:50:27;;;;;;;37.50;15.65;;;16.40;99.90;;;;;;4948644;28;20046;-58
2023/10/10 07:52:54;;;;;;;31.38;15.10;;;16.50;99.90;;;;;;4948024;29;20089;-58
2023/10/10 07:55:22;;;;;;;42.28;17.05;;;16.40;99.90;;;;;;4947498;29;20055;-58
2023/10/10 07:57:59;;;;;;;44.22;15.77;;;16.40;99.90;;;;;;4947876;28;20605;-59
2023/10/10 08:00:38;;;;;;;44.00;15.45;;;16.40;99.90;;;;;;4946947;29;20098;-59
2023/10/10 08:03:07;;;;;;;;;;;16.40;99.90;;;;;;4950952;28;20040;-58
2023/10/10 08:05:34;;;;;;;39.90;15.55;;;16.40;99.90;;;;;;4949655;29;19976;-58
2023/10/10 08:08:05;;;;;;;37.72;14.45;;;16.40;99.90;;;;;;4950460;29;20173;-58
2023/10/10 08:10:38;;;;;;;38.17;14.50;;;16.40;99.90;;;;;;4951297;28;20051;-58
2023/10/10 08:13:11;;;;;;;41.40;16.40;;;16.50;99.90;;;;;;4950661;29;20046;-58
2023/10/10 08:15:48;;;;;;;32.03;14.25;;;16.50;99.90;;;;;;4934429;29;20395;-58
2023/10/10 08:19:04;;;;;;;41.35;15.88;;;16.50;99.90;;;;;;4934115;28;20070;-59
2023/10/10 08:21:09;;;;;;;37.42;15.98;;;16.60;99.90;;;;;;4955986;28;20097;-58
2023/10/10 08:23:42;;;;;;;36.35;16.50;;;16.60;99.90;;;;;;4945149;28;20058;-58
2023/10/10 08:26:19;;;;;;;41.13;17.98;;;16.70;99.90;;;;;;4931794;28;20086;-58
2023/10/10 08:28:46;;;;;;;35.85;15.82;;;16.80;99.90;;;;;;4915090;29;20082;-58
2023/10/10 08:31:13;;;;;;;33.42;14.65;;;16.90;99.90;;;;;;4931848;28;20054;-59
2023/10/10 08:33:44;;;;;;;28.40;14.82;;;17.00;99.90;;;;;;4929970;28;20075;-58
2023/10/10 08:36:23;;;;;;;31.60;14.98;;;17.10;99.90;;;;;;4930523;28;20476;-59
2023/10/10 08:39:17;;;;;;;31.88;13.60;;;17.00;99.90;;;;;;4904873;28;20046;-58
2023/10/10 08:41:44;;;;;;;33.20;13.70;;;17.10;99.90;;;;;;4948691;29;20054;-58
2023/10/10 08:44:14;;;;;;;39.30;14.90;;;17.10;99.90;;;;;;4949549;29;20059;-58
2023/10/10 08:46:43;;;;;;;35.70;14.48;;;17.20;99.90;;;;;;4949569;29;20051;-59
2023/10/10 08:49:09;;;;;;;35.10;15.60;;;17.40;99.90;;;;;;4948924;29;20122;-58
2023/10/10 08:51:39;;;;;;;30.60;12.88;;;17.80;99.90;;;;;;4949481;29;20499;-59
2023/10/10 08:54:11;;;;;;;;;;;18.10;99.90;;;;;;4922135;28;20186;-58
2023/10/10 08:57:00;;;;;;;29.83;13.43;;;18.30;99.90;;;;;;4930336;29;19926;-59
2023/10/10 08:59:28;;;;;;;26.88;11.73;;;18.30;99.90;;;;;;4914507;29;20048;-59
2023/10/10 09:02:06;;;;;;;29.20;12.80;;;18.40;99.90;;;;;;4929828;29;20427;-59
2023/10/10 09:04:32;;;;;;;29.55;12.48;;;18.50;99.90;;;;;;4930472;28;20043;-59
2023/10/10 09:06:58;;;;;;;29.98;13.13;;;18.50;99.90;;;;;;4930299;28;20058;-58
2023/10/10 09:09:39;;;;;;;32.03;13.52;;;18.50;99.90;;;;;;4939935;28;20078;-58
2023/10/10 09:12:13;;;;;;;28.25;11.55;;;18.50;99.90;;;;;;4933998;29;20054;-59
2023/10/10 09:14:49;;;;;;;28.98;12.18;;;18.70;99.90;;;;;;4930381;28;20096;-58
2023/10/10 09:17:35;;;;;;;25.63;11.38;;;19.00;99.90;;;;;;4939885;29;20414;-59
2023/10/10 09:20:45;;;;;;;26.25;12.20;;;19.60;99.90;;;;;;4948923;29;20043;-59
2023/10/10 09:22:55;;;;;;;22.27;10.55;;;19.90;99.90;;;;;;4961132;28;20047;-59
2023/10/10 09:25:41;;;;;;;26.67;12.00;;;20.10;99.90;;;;;;4941182;28;20078;-59
2023/10/10 09:28:15;;;;;;;25.13;10.45;;;20.30;99.90;;;;;;4947751;29;20713;-58
2023/10/10 09:30:58;;;;;;;24.45;10.98;;;20.40;99.90;;;;;;4929198;28;20046;-59
2023/10/10 09:33:28;;;;;;;20.35;9.85;;;20.50;99.90;;;;;;4929702;29;20704;-58
2023/10/10 09:36:16;;;;;;;19.83;10.10;;;20.70;99.90;;;;;;4921570;29;20089;-59
2023/10/10 09:38:46;;;;;;;23.23;10.65;;;20.90;99.90;;;;;;4949984;28;20039;-59
2023/10/10 09:49:45;;;;;;;16.23;8.15;;;21.90;99.90;;;;;;4910419;29;20051;-58
2023/10/10 09:57:42;;;;;;;21.02;9.70;;;23.10;99.90;;;;;;4906385;29;20059;-58
2023/10/10 10:00:15;;;;;;;18.30;9.00;;;22.70;99.90;;;;;;4917081;29;20058;-59
2023/10/10 10:02:49;;;;;;;17.67;9.07;;;22.60;99.90;;;;;;4926759;29;20385;-58
2023/10/10 10:05:20;;;;;;;27.40;9.85;;;22.30;99.90;;;;;;4910385;29;20075;-59
2023/10/10 10:08:07;;;;;;;18.27;8.57;;;22.10;99.90;;;;;;4911038;29;20135;-59
2023/10/10 10:11:09;;;;;;;17.70;8.02;;;22.10;99.90;;;;;;4927274;29;20040;-59
2023/10/10 10:13:54;;;;;;;19.38;7.50;;;22.00;99.90;;;;;;4919693;29;20047;-59
2023/10/10 10:16:37;;;;;;;20.95;8.73;;;22.10;99.90;;;;;;4910747;29;20039;-59
2023/10/10 10:19:18;;;;;;;19.90;8.98;;;22.30;99.90;;;;;;4906987;29;20051;-60
2023/10/10 10:21:55;;;;;;;18.75;8.23;;;22.40;99.90;;;;;;4947739;29;20067;-59
2023/10/10 10:24:32;;;;;;;14.88;7.03;;;22.30;99.90;;;;;;4935275;29;20055;-59
2023/10/10 10:27:22;;;;;;;15.32;7.63;;;22.40;99.90;;;;;;4947023;29;20126;-59
2023/10/10 10:29:56;;;;;;;17.67;8.10;;;22.90;99.90;;;;;;4947885;28;20519;-59
2023/10/10 10:32:26;;;;;;;16.33;8.43;;;23.90;99.90;;;;;;4945505;28;20046;-60
2023/10/10 10:34:57;;;;;;;17.35;8.10;;;24.60;99.90;;;;;;4947077;29;20511;-59
2023/10/10 10:37:28;;;;;;;15.65;6.97;;;25.10;99.90;;;;;;4947391;28;20047;-59
2023/10/10 10:42:48;;;;;;;19.73;7.18;;;25.40;99.90;;;;;;4976127;28;20045;-59
2023/10/10 10:45:40;;;;;;;17.48;7.00;;;25.40;99.90;;;;;;4993090;28;20050;-59
2023/10/10 10:51:22;;;;;;;16.47;8.47;;;26.10;99.90;;;;;;4993576;28;20084;-60
2023/10/10 10:53:51;;;;;;;13.35;6.88;;;26.70;99.90;;;;;;4992877;28;20068;-60
2023/10/10 11:01:36;;;;;;;15.10;6.65;;;26.70;99.90;;;;;;4976896;28;20077;-60
2023/10/10 11:04:05;;;;;;;12.75;6.63;;;26.40;99.90;;;;;;4976221;28;20061;-59
2023/10/10 11:06:32;;;;;;;12.38;7.07;;;25.70;99.90;;;;;;4976511;28;20049;-60
2023/10/10 11:09:23;;;;;;;13.95;7.07;;;25.30;99.90;;;;;;4976923;28;20413;-60
2023/10/10 11:11:43;;;;;;;15.38;7.65;;;25.00;99.90;;;;;;4976509;28;20046;-60
2023/10/10 11:14:18;;;;;;;12.82;6.50;;;24.80;99.90;;;;;;4976201;28;20050;-60
2023/10/10 11:16:45;;;;;;;14.82;6.70;;;25.00;99.90;;;;;;4994017;28;20111;-60
2023/10/10 11:21:53;;;;;;;10.55;5.82;;;25.10;99.90;;;;;;4934785;28;20050;-60
2023/10/10 11:24:29;;;;;;;10.80;4.97;;;24.70;99.90;;;;;;4935193;28;20105;-60
2023/10/10 11:29:45;;;;;;;13.30;6.38;;;23.90;99.90;;;;;;4934896;28;20051;-59
2023/10/10 11:32:29;;;;;;;13.27;6.00;;;23.80;99.90;;;;;;4934698;28;20048;-59
2023/10/10 11:37:47;;;;;;;12.03;6.77;;;23.70;99.90;;;;;;4937246;28;20539;-60
2023/10/10 11:42:58;;;;;;;10.43;5.63;;;23.30;99.90;;;;;;4938513;28;20062;-59
2023/10/10 11:45:27;;;;;;;12.00;5.88;;;23.20;99.90;;;;;;4939667;28;20032;-59
2023/10/10 11:48:10;;;;;;;;;;;23.20;99.90;;;;;;4937381;28;20050;-59
2023/10/10 11:50:43;;;;;;;12.35;6.20;;;23.40;99.90;;;;;;4938835;28;19941;-60
2023/10/10 11:53:19;;;;;;;11.60;6.10;;;23.50;99.90;;;;;;4937421;28;20141;-61
2023/10/10 11:55:45;;;;;;;11.15;6.22;;;23.60;99.90;;;;;;4939259;28;20046;-60
2023/10/10 11:58:20;;;;;;;13.00;5.65;;;23.70;99.90;;;;;;4937381;28;20054;-60
2023/10/10 12:01:03;;;;;;;14.18;6.63;;;23.80;99.90;;;;;;4953434;28;20173;-60
2023/10/10 12:06:14;;;;;;;16.02;7.80;;;23.90;99.90;;;;;;4938180;28;20051;-60
2023/10/10 12:08:53;;;;;;;14.10;6.97;;;23.30;99.90;;;;;;4938487;28;20074;-60
2023/10/10 12:11:22;;;;;;;10.93;5.93;;;23.00;99.90;;;;;;4937337;28;20054;-60
2023/10/10 12:13:50;;;;;;;15.38;7.20;;;22.90;99.90;;;;;;4938591;28;20126;-60
2023/10/10 12:16:17;;;;;;;13.95;7.20;;;23.00;99.90;;;;;;4937715;28;20032;-59
2023/10/10 12:18:55;;;;;;;14.57;7.22;;;22.90;99.90;;;;;;4936951;28;20051;-59
2023/10/10 12:21:21;;;;;;;16.48;7.15;;;22.60;99.90;;;;;;4936730;28;20043;-60
2023/10/10 12:23:52;;;;;;;13.52;6.60;;;22.30;99.90;;;;;;4936358;28;20043;-59
2023/10/10 12:26:18;;;;;;;14.68;7.68;;;22.00;99.90;;;;;;4945555;28;20043;-59
2023/10/10 12:28:47;;;;;;;13.32;7.13;;;21.70;99.90;;;;;;4937573;28;20043;-59
2023/10/10 12:31:16;;;;;;;19.15;7.25;;;21.50;99.90;;;;;;4937286;28;20047;-59
2023/10/10 12:33:45;;;;;;;21.05;8.43;;;21.40;99.90;;;;;;4921984;28;20043;-60
2023/10/10 12:36:12;;;;;;;17.40;7.80;;;21.30;99.90;;;;;;4939052;28;20396;-59
2023/10/10 12:38:38;;;;;;;15.05;8.00;;;21.20;99.90;;;;;;4937654;28;20070;-59
2023/10/10 12:41:11;;;;;;;15.15;8.13;;;21.10;99.90;;;;;;4921860;28;20530;-60
2023/10/10 12:43:37;;;;;;;15.18;7.80;;;21.20;99.90;;;;;;4938294;28;20389;-59
2023/10/10 12:46:06;;;;;;;14.52;7.82;;;21.20;99.90;;;;;;4938504;28;20053;-59
2023/10/10 12:48:39;;;;;;;16.85;8.35;;;21.20;99.90;;;;;;4938420;28;20039;-59
2023/10/10 12:51:09;;;;;;;20.50;8.93;;;21.30;99.90;;;;;;4938723;28;20040;-59
2023/10/10 12:53:39;;;;;;;18.02;8.48;;;21.30;99.90;;;;;;4938005;28;20097;-59
2023/10/10 12:56:06;;;;;;;14.48;7.93;;;21.30;99.90;;;;;;4937333;28;20039;-59
2023/10/10 12:58:32;;;;;;;19.73;9.35;;;21.30;99.90;;;;;;4938722;28;20472;-59
2023/10/10 13:00:59;;;;;;;21.00;8.75;;;21.30;99.90;;;;;;4936617;28;20035;-59
2023/10/10 13:03:32;;;;;;;18.70;8.27;;;21.30;99.90;;;;;;4921646;28;20120;-59
2023/10/10 13:05:59;;;;;;;17.40;8.85;;;21.30;99.90;;;;;;4938129;28;20442;-59
2023/10/10 13:08:38;;;;;;;21.73;9.35;;;21.30;99.90;;;;;;4937164;28;20044;-59
2023/10/10 13:11:12;;;;;;;16.92;7.82;;;21.30;99.90;;;;;;4945627;28;20399;-59
2023/10/10 13:13:45;;;;;;;17.58;8.27;;;21.30;99.90;;;;;;4936032;28;20154;-59
2023/10/10 13:16:37;;;;;;;16.45;8.52;;;21.40;99.90;;;;;;4953139;28;20587;-59
2023/10/10 13:19:07;;;;;;;19.52;9.32;;;21.50;99.90;;;;;;4937120;28;20129;-59
2023/10/10 13:21:36;;;;;;;17.38;8.25;;;21.50;99.90;;;;;;4937020;28;20581;-59
2023/10/10 13:24:09;;;;;;;20.00;9.40;;;21.50;99.90;;;;;;4936967;28;20058;-59
2023/10/10 13:26:49;;;;;;;16.00;8.23;;;21.40;99.90;;;;;;4936646;28;20058;-59
2023/10/10 13:29:16;;;;;;;;;;;21.30;99.90;;;;;;4937506;28;20051;-59
2023/10/10 13:31:44;;;;;;;21.13;8.73;;;21.10;99.90;;;;;;4936830;28;20406;-59
2023/10/10 13:34:11;;;;;;;15.38;8.02;;;21.00;99.90;;;;;;4937106;28;20436;-59
2023/10/10 13:36:37;;;;;;;16.38;7.93;;;20.90;99.90;;;;;;4936635;28;20074;-59
2023/10/10 13:39:07;;;;;;;21.02;8.52;;;20.90;99.90;;;;;;4936944;28;20133;-59
2023/10/10 13:41:36;;;;;;;22.50;8.82;;;20.90;99.90;;;;;;4936325;28;20047;-59
2023/10/10 13:44:03;;;;;;;16.02;8.18;;;20.80;99.90;;;;;;4936638;28;20070;-59
2023/10/10 13:46:34;;;;;;;18.48;8.27;;;20.80;99.90;;;;;;4952479;28;20052;-59
2023/10/10 13:49:03;;;;;;;16.85;8.48;;;20.80;99.90;;;;;;4936214;28;20391;-59
2023/10/10 13:51:30;;;;;;;19.67;8.90;;;20.80;99.90;;;;;;4937595;28;20119;-59
2023/10/10 13:53:56;;;;;;;16.48;7.47;;;20.90;99.90;;;;;;4950634;28;20134;-59
2023/10/10 13:56:23;;;;;;;19.40;8.10;;;20.90;99.90;;;;;;4936811;28;20429;-59
2023/10/10 13:58:52;;;;;;;19.45;7.90;;;20.90;99.90;;;;;;4935554;28;20047;-59
2023/10/10 14:04:00;;;;;;;21.42;9.32;;;20.80;99.90;;;;;;4935503;28;20303;-59
2023/10/10 14:06:27;;;;;;;21.25;7.82;;;20.80;99.90;;;;;;4936344;28;20081;-59
2023/10/10 14:08:54;;;;;;;18.73;8.57;;;20.80;99.90;;;;;;4936879;28;20710;-59
2023/10/10 14:11:23;;;;;;;22.65;8.00;;;20.80;99.90;;;;;;4936017;28;20055;-59
2023/10/10 14:13:52;;;;;;;16.00;8.15;;;20.80;99.90;;;;;;4935688;28;20500;-59
2023/10/10 14:16:19;;;;;;;14.45;7.53;;;20.90;99.90;;;;;;4937308;28;20036;-59
2023/10/10 14:18:47;;;;;;;14.77;7.90;;;20.90;99.90;;;;;;4943921;28;20048;-59
2023/10/10 14:21:14;;;;;;;15.98;6.85;;;21.00;99.90;;;;;;4935566;28;20113;-59
2023/10/10 14:23:41;;;;;;;15.43;7.55;;;21.00;99.90;;;;;;4935121;28;20046;-59
2023/10/10 14:26:14;;;;;;;17.77;7.75;;;20.90;99.90;;;;;;4920043;28;20102;-59
2023/10/10 14:28:50;;;;;;;16.17;7.70;;;20.90;99.90;;;;;;4936288;28;20059;-60
2023/10/10 14:31:24;;;;;;;21.13;8.68;;;20.80;99.90;;;;;;4935133;28;20058;-59
2023/10/10 14:33:50;;;;;;;19.45;7.88;;;20.70;99.90;;;;;;4935526;28;20074;-59
2023/10/10 14:36:17;;;;;;;16.75;7.15;;;20.70;99.90;;;;;;4919660;28;20395;-60
2023/10/10 14:38:50;;;;;;;16.23;7.63;;;20.60;99.90;;;;;;4935536;28;20467;-59
2023/10/10 14:41:30;;;;;;;15.68;7.00;;;20.60;99.90;;;;;;4935994;28;20048;-59
2023/10/10 14:44:00;;;;;;;14.02;7.60;;;20.60;99.90;;;;;;4936754;28;20063;-60
2023/10/10 14:46:33;;;;;;;17.38;7.10;;;20.60;99.90;;;;;;4935739;28;20040;-59
2023/10/10 14:49:06;;;;;;;14.85;7.03;;;20.60;99.90;;;;;;4935378;28;20039;-59
2023/10/10 14:51:37;;;;;;;18.50;7.65;;;20.50;99.90;;;;;;4936057;28;20488;-59
2023/10/10 14:54:11;;;;;;;13.50;6.97;;;20.50;99.90;;;;;;4935486;28;20306;-59
2023/10/10 14:56:39;;;;;;;13.15;7.57;;;20.50;99.90;;;;;;4918754;28;20043;-59
2023/10/10 14:59:06;;;;;;;13.93;6.75;;;20.40;99.90;;;;;;4935762;28;20480;-59
2023/10/10 15:01:36;;;;;;;14.27;7.18;;;20.40;99.90;;;;;;4936524;28;20075;-59
2023/10/10 15:04:05;;;;;;;;;;;20.40;99.90;;;;;;4936495;28;20039;-59
2023/10/10 15:06:31;;;;;;;;;;;20.30;99.90;;;;;;4935184;28;19925;-59
2023/10/10 15:08:58;;;;;;;17.45;6.45;;;20.40;99.90;;;;;;4951813;28;19923;-59
2023/10/10 15:11:27;;;;;;;13.93;7.15;;;20.30;99.90;;;;;;4919012;28;20071;-59
2023/10/10 15:13:58;;;;;;;15.05;6.82;;;20.30;99.90;;;;;;4936516;28;20043;-59
2023/10/10 15:16:27;;;;;;;11.85;5.93;;;20.20;99.90;;;;;;4936791;28;20083;-59
2023/10/10 15:18:53;;;;;;;13.77;6.00;;;20.20;99.90;;;;;;4934346;28;20058;-59
2023/10/10 15:21:27;;;;;;;16.42;7.53;;;20.20;99.90;;;;;;4936476;28;20148;-59
2023/10/10 15:23:53;;;;;;;12.18;6.43;;;20.20;99.90;;;;;;4932942;28;20102;-59
2023/10/10 15:26:19;;;;;;;12.20;6.70;;;20.30;99.90;;;;;;4935865;28;20059;-59
2023/10/10 15:28:45;;;;;;;14.68;6.50;;;20.30;99.90;;;;;;4934104;28;20048;-59
2023/10/10 15:31:12;;;;;;;13.50;6.72;;;20.30;99.90;;;;;;4919171;28;20040;-59
2023/10/10 15:33:48;;;;;;;14.45;7.65;;;20.40;99.90;;;;;;4934529;28;20052;-59
2023/10/10 15:36:16;;;;;;;14.88;7.10;;;20.40;99.90;;;;;;4935775;28;20427;-59
2023/10/10 15:38:44;;;;;;;13.00;5.85;;;20.40;99.90;;;;;;4919420;28;20108;-59
2023/10/10 15:41:21;;;;;;;12.57;6.22;;;20.30;99.90;;;;;;4936043;28;20503;-59
2023/10/10 15:43:48;;;;;;;13.05;5.90;;;20.30;99.90;;;;;;4925842;28;20071;-59
2023/10/10 15:46:15;;;;;;;12.88;5.57;;;20.20;99.90;;;;;;4935600;28;20055;-59
2023/10/10 15:48:51;;;;;;;10.57;5.68;;;20.10;99.90;;;;;;4935191;28;20133;-59
2023/10/10 15:51:21;;;;;;;15.85;6.65;;;20.10;99.90;;;;;;4933873;28;20079;-60
2023/10/10 15:53:48;;;;;;;11.00;6.15;;;20.00;99.90;;;;;;4936108;28;20040;-59
2023/10/10 15:56:15;;;;;;;16.13;5.70;;;20.00;99.90;;;;;;4934938;28;20047;-59
2023/10/10 15:58:49;;;;;;;11.55;5.85;;;19.90;99.90;;;;;;4934017;28;20573;-59
2023/10/10 16:01:28;;;;;;;13.10;6.68;;;19.90;99.90;;;;;;4934303;28;20039;-59
2023/10/10 16:03:59;;;;;;;16.88;6.03;;;19.90;99.90;;;;;;4950156;28;20149;-59
2023/10/10 16:06:27;;;;;;;13.65;5.30;;;19.90;99.90;;;;;;4934121;28;20056;-59
2023/10/10 16:08:54;;;;;;;14.25;6.63;;;19.80;99.90;;;;;;4933642;28;20181;-59
2023/10/10 16:11:21;;;;;;;11.50;5.82;;;19.70;99.90;;;;;;4935834;28;20055;-59